sensor_id;sensor_type;location;lat;lon;timestamp;P1;durP1;ratioP1;P2;durP2;ratioP2
10059;SDS011;5069;49.306;8.636;2022-11-15T00:02:01;6.77;;;5.33;;
10059;SDS011;5069;49.306;8.636;2022-11-15T00:05:23;7.70;;;5.70;;
10059;SDS011;5069;49.306;8.636;2022-11-15T00:08:43;7.00;;;5.63;;
10059;SDS011;5069;49.306;8.636;2022-11-15T00:12:03;7.20;;;5.77;;
10059;SDS011;5069;49.306;8.636;2022-11-15T00:15:23;6.17;;;5.23;;
10059;SDS011;5069;49.306;8.636;2022-11-15T00:18:43;8.97;;;5.40;;
10059;SDS011;5069;49.306;8.636;2022-11-15T00:22:09;12.37;;;5.53;;
10059;SDS011;5069;49.306;8.636;2022-11-15T00:25:29;7.17;;;5.47;;
10059;SDS011;5069;49.306;8.636;2022-11-15T00:28:51;6.53;;;5.00;;
10059;SDS011;5069;49.306;8.636;2022-11-15T00:32:12;8.37;;;4.80;;
10059;SDS011;5069;49.306;8.636;2022-11-15T00:35:33;6.33;;;4.73;;
10059;SDS011;5069;49.306;8.636;2022-11-15T00:38:54;6.70;;;5.17;;
10059;SDS011;5069;49.306;8.636;2022-11-15T00:42:13;6.27;;;4.93;;
10059;SDS011;5069;49.306;8.636;2022-11-15T00:45:33;7.77;;;4.33;;
10059;SDS011;5069;49.306;8.636;2022-11-15T00:48:53;6.50;;;4.30;;
10059;SDS011;5069;49.306;8.636;2022-11-15T00:52:13;6.03;;;4.67;;
10059;SDS011;5069;49.306;8.636;2022-11-15T00:55:33;6.77;;;4.43;;
10059;SDS011;5069;49.306;8.636;2022-11-15T00:58:53;6.13;;;4.37;;
10059;SDS011;5069;49.306;8.636;2022-11-15T01:02:13;5.73;;;4.30;;
10059;SDS011;5069;49.306;8.636;2022-11-15T01:05:33;6.23;;;4.63;;
10059;SDS011;5069;49.306;8.636;2022-11-15T01:08:53;5.33;;;4.20;;
10059;SDS011;5069;49.306;8.636;2022-11-15T01:12:12;5.33;;;3.97;;
10059;SDS011;5069;49.306;8.636;2022-11-15T01:15:33;8.43;;;4.40;;
10059;SDS011;5069;49.306;8.636;2022-11-15T01:18:53;5.87;;;4.50;;
10059;SDS011;5069;49.306;8.636;2022-11-15T01:22:13;7.73;;;4.47;;
10059;SDS011;5069;49.306;8.636;2022-11-15T01:25:33;6.60;;;5.00;;
10059;SDS011;5069;49.306;8.636;2022-11-15T01:28:53;9.23;;;4.70;;
10059;SDS011;5069;49.306;8.636;2022-11-15T01:32:13;6.40;;;4.43;;
10059;SDS011;5069;49.306;8.636;2022-11-15T01:35:33;5.73;;;4.30;;
10059;SDS011;5069;49.306;8.636;2022-11-15T01:38:58;7.70;;;5.00;;
10059;SDS011;5069;49.306;8.636;2022-11-15T01:42:18;7.57;;;4.53;;
10059;SDS011;5069;49.306;8.636;2022-11-15T01:45:38;5.17;;;4.03;;
10059;SDS011;5069;49.306;8.636;2022-11-15T01:49:00;5.60;;;4.70;;
10059;SDS011;5069;49.306;8.636;2022-11-15T01:52:25;7.20;;;4.43;;
10059;SDS011;5069;49.306;8.636;2022-11-15T01:55:46;6.63;;;4.10;;
10059;SDS011;5069;49.306;8.636;2022-11-15T01:59:07;4.97;;;3.87;;
10059;SDS011;5069;49.306;8.636;2022-11-15T02:02:28;5.27;;;3.83;;
10059;SDS011;5069;49.306;8.636;2022-11-15T02:05:47;5.93;;;3.80;;
10059;SDS011;5069;49.306;8.636;2022-11-15T02:09:09;4.50;;;4.10;;
10059;SDS011;5069;49.306;8.636;2022-11-15T02:12:31;5.83;;;4.20;;
10059;SDS011;5069;49.306;8.636;2022-11-15T02:23:04;5.33;;;4.07;;
10059;SDS011;5069;49.306;8.636;2022-11-15T02:41:07;5.73;;;3.97;;
10059;SDS011;5069;49.306;8.636;2022-11-15T02:44:39;4.23;;;3.73;;
10059;SDS011;5069;49.306;8.636;2022-11-15T02:48:04;5.17;;;3.97;;
10059;SDS011;5069;49.306;8.636;2022-11-15T02:51:27;4.77;;;3.97;;
10059;SDS011;5069;49.306;8.636;2022-11-15T02:54:57;6.67;;;4.10;;
10059;SDS011;5069;49.306;8.636;2022-11-15T02:58:37;4.37;;;3.70;;
10059;SDS011;5069;49.306;8.636;2022-11-15T03:09:34;7.57;;;3.93;;
10059;SDS011;5069;49.306;8.636;2022-11-15T03:13:16;4.87;;;3.67;;
10059;SDS011;5069;49.306;8.636;2022-11-15T03:20:11;8.33;;;3.73;;
10059;SDS011;5069;49.306;8.636;2022-11-15T03:23:33;4.63;;;3.73;;
10059;SDS011;5069;49.306;8.636;2022-11-15T03:26:56;5.23;;;3.67;;
10059;SDS011;5069;49.306;8.636;2022-11-15T03:30:19;6.70;;;3.73;;
10059;SDS011;5069;49.306;8.636;2022-11-15T03:33:40;5.20;;;3.50;;
10059;SDS011;5069;49.306;8.636;2022-11-15T03:37:00;5.30;;;3.97;;
10059;SDS011;5069;49.306;8.636;2022-11-15T03:40:25;4.27;;;3.63;;
10059;SDS011;5069;49.306;8.636;2022-11-15T03:43:55;4.60;;;3.17;;
10059;SDS011;5069;49.306;8.636;2022-11-15T03:47:21;7.60;;;3.40;;
10059;SDS011;5069;49.306;8.636;2022-11-15T03:50:47;3.50;;;3.00;;
10059;SDS011;5069;49.306;8.636;2022-11-15T03:54:08;3.93;;;3.43;;
10059;SDS011;5069;49.306;8.636;2022-11-15T03:57:28;6.07;;;3.87;;
10059;SDS011;5069;49.306;8.636;2022-11-15T04:00:48;5.47;;;3.30;;
10059;SDS011;5069;49.306;8.636;2022-11-15T04:04:08;5.63;;;3.47;;
10059;SDS011;5069;49.306;8.636;2022-11-15T04:07:28;4.10;;;3.43;;
10059;SDS011;5069;49.306;8.636;2022-11-15T04:10:49;5.37;;;3.60;;
10059;SDS011;5069;49.306;8.636;2022-11-15T04:14:09;6.87;;;3.63;;
10059;SDS011;5069;49.306;8.636;2022-11-15T04:17:29;3.80;;;3.37;;
10059;SDS011;5069;49.306;8.636;2022-11-15T04:20:49;6.83;;;3.80;;
10059;SDS011;5069;49.306;8.636;2022-11-15T04:24:27;4.20;;;3.30;;
10059;SDS011;5069;49.306;8.636;2022-11-15T04:27:47;3.57;;;3.03;;
10059;SDS011;5069;49.306;8.636;2022-11-15T04:31:07;5.50;;;3.07;;
10059;SDS011;5069;49.306;8.636;2022-11-15T04:34:27;4.73;;;3.00;;
10059;SDS011;5069;49.306;8.636;2022-11-15T04:37:47;3.67;;;3.30;;
10059;SDS011;5069;49.306;8.636;2022-11-15T04:41:08;4.33;;;3.00;;
10059;SDS011;5069;49.306;8.636;2022-11-15T04:44:28;4.23;;;2.97;;
10059;SDS011;5069;49.306;8.636;2022-11-15T04:47:48;4.20;;;3.50;;
10059;SDS011;5069;49.306;8.636;2022-11-15T04:51:08;3.60;;;3.17;;
10059;SDS011;5069;49.306;8.636;2022-11-15T04:54:28;6.70;;;3.43;;
10059;SDS011;5069;49.306;8.636;2022-11-15T04:57:56;5.17;;;3.10;;
10059;SDS011;5069;49.306;8.636;2022-11-15T05:01:17;5.13;;;3.13;;
10059;SDS011;5069;49.306;8.636;2022-11-15T05:04:38;5.50;;;3.37;;
10059;SDS011;5069;49.306;8.636;2022-11-15T05:07:58;3.47;;;3.00;;
10059;SDS011;5069;49.306;8.636;2022-11-15T05:11:18;3.43;;;2.97;;
10059;SDS011;5069;49.306;8.636;2022-11-15T05:14:39;4.67;;;3.07;;
10059;SDS011;5069;49.306;8.636;2022-11-15T05:17:59;4.03;;;3.13;;
10059;SDS011;5069;49.306;8.636;2022-11-15T05:21:22;5.00;;;3.27;;
10059;SDS011;5069;49.306;8.636;2022-11-15T05:24:42;5.83;;;3.20;;
10059;SDS011;5069;49.306;8.636;2022-11-15T05:28:02;4.93;;;3.17;;
10059;SDS011;5069;49.306;8.636;2022-11-15T05:31:22;6.97;;;3.97;;
10059;SDS011;5069;49.306;8.636;2022-11-15T05:34:43;3.83;;;3.40;;
10059;SDS011;5069;49.306;8.636;2022-11-15T05:38:03;5.20;;;3.57;;
10059;SDS011;5069;49.306;8.636;2022-11-15T05:41:31;6.60;;;3.33;;
10059;SDS011;5069;49.306;8.636;2022-11-15T05:44:53;4.47;;;3.33;;
10059;SDS011;5069;49.306;8.636;2022-11-15T05:48:13;6.13;;;3.60;;
10059;SDS011;5069;49.306;8.636;2022-11-15T05:51:34;6.10;;;4.00;;
10059;SDS011;5069;49.306;8.636;2022-11-15T05:54:55;7.30;;;4.53;;
10059;SDS011;5069;49.306;8.636;2022-11-15T05:58:16;5.57;;;3.87;;
10059;SDS011;5069;49.306;8.636;2022-11-15T06:01:37;5.87;;;3.90;;
10059;SDS011;5069;49.306;8.636;2022-11-15T06:04:58;4.77;;;3.70;;
10059;SDS011;5069;49.306;8.636;2022-11-15T06:08:18;5.10;;;3.67;;
10059;SDS011;5069;49.306;8.636;2022-11-15T06:11:38;4.87;;;3.47;;
10059;SDS011;5069;49.306;8.636;2022-11-15T06:14:58;6.37;;;3.60;;
10059;SDS011;5069;49.306;8.636;2022-11-15T06:18:17;5.80;;;3.30;;
10059;SDS011;5069;49.306;8.636;2022-11-15T06:21:37;4.10;;;3.00;;
10059;SDS011;5069;49.306;8.636;2022-11-15T06:24:57;4.40;;;3.37;;
10059;SDS011;5069;49.306;8.636;2022-11-15T06:28:24;5.73;;;3.70;;
10059;SDS011;5069;49.306;8.636;2022-11-15T06:31:44;9.13;;;3.70;;
10059;SDS011;5069;49.306;8.636;2022-11-15T06:35:04;4.87;;;3.50;;
10059;SDS011;5069;49.306;8.636;2022-11-15T06:38:24;5.23;;;3.80;;
10059;SDS011;5069;49.306;8.636;2022-11-15T06:41:46;4.73;;;3.50;;
10059;SDS011;5069;49.306;8.636;2022-11-15T06:45:06;5.40;;;3.83;;
10059;SDS011;5069;49.306;8.636;2022-11-15T06:48:27;6.30;;;4.40;;
10059;SDS011;5069;49.306;8.636;2022-11-15T06:51:48;6.23;;;3.93;;
10059;SDS011;5069;49.306;8.636;2022-11-15T06:55:08;9.77;;;4.13;;
10059;SDS011;5069;49.306;8.636;2022-11-15T06:58:28;8.43;;;4.33;;
10059;SDS011;5069;49.306;8.636;2022-11-15T07:01:48;7.50;;;4.33;;
10059;SDS011;5069;49.306;8.636;2022-11-15T07:05:09;6.53;;;4.00;;
10059;SDS011;5069;49.306;8.636;2022-11-15T07:08:29;12.30;;;4.23;;
10059;SDS011;5069;49.306;8.636;2022-11-15T07:11:49;4.93;;;3.37;;
10059;SDS011;5069;49.306;8.636;2022-11-15T07:15:10;5.70;;;4.73;;
10059;SDS011;5069;49.306;8.636;2022-11-15T07:18:29;10.20;;;5.60;;
10059;SDS011;5069;49.306;8.636;2022-11-15T07:21:49;5.83;;;4.50;;
10059;SDS011;5069;49.306;8.636;2022-11-15T07:25:09;5.63;;;4.70;;
10059;SDS011;5069;49.306;8.636;2022-11-15T07:28:29;6.80;;;4.53;;
10059;SDS011;5069;49.306;8.636;2022-11-15T07:31:50;6.43;;;4.40;;
10059;SDS011;5069;49.306;8.636;2022-11-15T07:35:10;5.63;;;3.63;;
10059;SDS011;5069;49.306;8.636;2022-11-15T07:38:31;8.83;;;3.97;;
10059;SDS011;5069;49.306;8.636;2022-11-15T07:41:59;7.33;;;5.10;;
10059;SDS011;5069;49.306;8.636;2022-11-15T07:45:42;6.63;;;4.87;;
10059;SDS011;5069;49.306;8.636;2022-11-15T07:49:03;10.57;;;4.43;;
10059;SDS011;5069;49.306;8.636;2022-11-15T07:52:23;7.77;;;4.30;;
10059;SDS011;5069;49.306;8.636;2022-11-15T07:55:44;6.83;;;4.37;;
10059;SDS011;5069;49.306;8.636;2022-11-15T07:59:03;4.80;;;4.00;;
10059;SDS011;5069;49.306;8.636;2022-11-15T08:02:24;5.70;;;4.00;;
10059;SDS011;5069;49.306;8.636;2022-11-15T08:05:50;4.97;;;3.80;;
10059;SDS011;5069;49.306;8.636;2022-11-15T08:09:11;5.63;;;3.73;;
10059;SDS011;5069;49.306;8.636;2022-11-15T08:12:31;6.43;;;3.80;;
10059;SDS011;5069;49.306;8.636;2022-11-15T08:15:51;7.20;;;3.57;;
10059;SDS011;5069;49.306;8.636;2022-11-15T08:19:16;4.50;;;3.30;;
10059;SDS011;5069;49.306;8.636;2022-11-15T08:22:36;4.37;;;3.23;;
10059;SDS011;5069;49.306;8.636;2022-11-15T08:26:00;5.60;;;4.27;;
10059;SDS011;5069;49.306;8.636;2022-11-15T08:29:24;6.27;;;3.70;;
10059;SDS011;5069;49.306;8.636;2022-11-15T08:32:44;5.00;;;3.47;;
10059;SDS011;5069;49.306;8.636;2022-11-15T08:36:04;6.30;;;3.70;;
10059;SDS011;5069;49.306;8.636;2022-11-15T08:39:24;4.53;;;3.60;;
10059;SDS011;5069;49.306;8.636;2022-11-15T08:42:45;4.57;;;3.80;;
10059;SDS011;5069;49.306;8.636;2022-11-15T08:46:07;7.17;;;3.80;;
10059;SDS011;5069;49.306;8.636;2022-11-15T08:49:31;6.23;;;3.40;;
10059;SDS011;5069;49.306;8.636;2022-11-15T08:52:51;6.47;;;4.03;;
10059;SDS011;5069;49.306;8.636;2022-11-15T08:56:12;4.53;;;3.60;;
10059;SDS011;5069;49.306;8.636;2022-11-15T08:59:33;8.33;;;4.17;;
10059;SDS011;5069;49.306;8.636;2022-11-15T09:02:53;7.30;;;3.60;;
10059;SDS011;5069;49.306;8.636;2022-11-15T09:06:13;4.43;;;3.27;;
10059;SDS011;5069;49.306;8.636;2022-11-15T09:09:34;5.30;;;3.40;;
10059;SDS011;5069;49.306;8.636;2022-11-15T09:12:56;4.57;;;3.80;;
10059;SDS011;5069;49.306;8.636;2022-11-15T09:16:16;4.57;;;3.47;;
10059;SDS011;5069;49.306;8.636;2022-11-15T09:19:36;5.13;;;3.87;;
10059;SDS011;5069;49.306;8.636;2022-11-15T09:23:00;4.97;;;3.70;;
10059;SDS011;5069;49.306;8.636;2022-11-15T09:26:21;7.93;;;4.17;;
10059;SDS011;5069;49.306;8.636;2022-11-15T09:29:41;4.80;;;3.60;;
10059;SDS011;5069;49.306;8.636;2022-11-15T09:33:08;5.90;;;3.80;;
10059;SDS011;5069;49.306;8.636;2022-11-15T09:36:29;5.27;;;4.07;;
10059;SDS011;5069;49.306;8.636;2022-11-15T09:39:48;6.07;;;3.83;;
10059;SDS011;5069;49.306;8.636;2022-11-15T09:43:25;5.27;;;3.47;;
10059;SDS011;5069;49.306;8.636;2022-11-15T09:47:00;4.97;;;3.40;;
10059;SDS011;5069;49.306;8.636;2022-11-15T09:50:37;4.73;;;3.60;;
10059;SDS011;5069;49.306;8.636;2022-11-15T09:53:55;5.87;;;3.47;;
10059;SDS011;5069;49.306;8.636;2022-11-15T10:00:44;8.93;;;4.00;;
10059;SDS011;5069;49.306;8.636;2022-11-15T10:03:49;6.13;;;4.00;;
10059;SDS011;5069;49.306;8.636;2022-11-15T10:06:58;7.50;;;3.63;;
10059;SDS011;5069;49.306;8.636;2022-11-15T10:10:39;6.10;;;4.17;;
10059;SDS011;5069;49.306;8.636;2022-11-15T10:13:44;7.30;;;3.70;;
10059;SDS011;5069;49.306;8.636;2022-11-15T10:20:13;5.57;;;3.27;;
10059;SDS011;5069;49.306;8.636;2022-11-15T10:23:20;11.03;;;3.90;;
10059;SDS011;5069;49.306;8.636;2022-11-15T10:26:24;4.37;;;3.23;;
10059;SDS011;5069;49.306;8.636;2022-11-15T10:29:25;4.83;;;3.73;;
10059;SDS011;5069;49.306;8.636;2022-11-15T10:32:27;4.23;;;3.83;;
10059;SDS011;5069;49.306;8.636;2022-11-15T10:35:30;5.90;;;3.80;;
10059;SDS011;5069;49.306;8.636;2022-11-15T10:38:31;7.37;;;3.90;;
10059;SDS011;5069;49.306;8.636;2022-11-15T10:41:38;6.53;;;3.77;;
10059;SDS011;5069;49.306;8.636;2022-11-15T10:44:42;6.00;;;3.90;;
10059;SDS011;5069;49.306;8.636;2022-11-15T10:47:44;6.67;;;4.03;;
10059;SDS011;5069;49.306;8.636;2022-11-15T10:50:46;7.27;;;4.47;;
10059;SDS011;5069;49.306;8.636;2022-11-15T10:53:49;8.67;;;4.37;;
10059;SDS011;5069;49.306;8.636;2022-11-15T10:56:53;7.00;;;4.50;;
10059;SDS011;5069;49.306;8.636;2022-11-15T11:06:56;6.83;;;3.90;;
10059;SDS011;5069;49.306;8.636;2022-11-15T11:10:00;7.73;;;4.17;;
10059;SDS011;5069;49.306;8.636;2022-11-15T11:13:24;7.07;;;3.90;;
10059;SDS011;5069;49.306;8.636;2022-11-15T11:16:34;6.57;;;4.00;;
10059;SDS011;5069;49.306;8.636;2022-11-15T11:23:12;5.87;;;4.00;;
10059;SDS011;5069;49.306;8.636;2022-11-15T11:26:34;6.57;;;4.20;;
10059;SDS011;5069;49.306;8.636;2022-11-15T11:33:22;6.63;;;4.47;;
10059;SDS011;5069;49.306;8.636;2022-11-15T11:46:52;6.33;;;4.53;;
10059;SDS011;5069;49.306;8.636;2022-11-15T11:49:59;6.70;;;4.50;;
10059;SDS011;5069;49.306;8.636;2022-11-15T11:56:50;5.17;;;4.00;;
10059;SDS011;5069;49.306;8.636;2022-11-15T11:59:58;6.27;;;4.23;;
10059;SDS011;5069;49.306;8.636;2022-11-15T12:09:35;5.50;;;4.10;;
10059;SDS011;5069;49.306;8.636;2022-11-15T12:13:00;5.17;;;3.90;;
10059;SDS011;5069;49.306;8.636;2022-11-15T12:19:18;6.27;;;3.83;;
10059;SDS011;5069;49.306;8.636;2022-11-15T12:22:24;5.80;;;4.33;;
10059;SDS011;5069;49.306;8.636;2022-11-15T12:28:38;5.53;;;4.10;;
10059;SDS011;5069;49.306;8.636;2022-11-15T12:32:03;6.10;;;5.10;;
10059;SDS011;5069;49.306;8.636;2022-11-15T12:35:20;7.43;;;4.90;;
10059;SDS011;5069;49.306;8.636;2022-11-15T12:44:58;8.37;;;5.07;;
10059;SDS011;5069;49.306;8.636;2022-11-15T12:51:16;9.83;;;6.20;;
10059;SDS011;5069;49.306;8.636;2022-11-15T12:57:35;10.43;;;6.13;;
10059;SDS011;5069;49.306;8.636;2022-11-15T13:00:39;12.07;;;6.23;;
10059;SDS011;5069;49.306;8.636;2022-11-15T13:04:07;7.33;;;4.50;;
10059;SDS011;5069;49.306;8.636;2022-11-15T13:10:40;7.50;;;5.00;;
10059;SDS011;5069;49.306;8.636;2022-11-15T13:13:42;7.37;;;4.37;;
10059;SDS011;5069;49.306;8.636;2022-11-15T13:16:45;6.03;;;4.50;;
10059;SDS011;5069;49.306;8.636;2022-11-15T13:19:52;5.97;;;4.20;;
10059;SDS011;5069;49.306;8.636;2022-11-15T13:26:08;7.90;;;4.37;;
10059;SDS011;5069;49.306;8.636;2022-11-15T13:29:17;8.07;;;4.47;;
10059;SDS011;5069;49.306;8.636;2022-11-15T13:32:20;7.50;;;4.40;;
10059;SDS011;5069;49.306;8.636;2022-11-15T13:35:26;6.07;;;4.77;;
10059;SDS011;5069;49.306;8.636;2022-11-15T13:38:31;7.73;;;4.90;;
10059;SDS011;5069;49.306;8.636;2022-11-15T13:41:35;8.17;;;5.13;;
10059;SDS011;5069;49.306;8.636;2022-11-15T13:44:56;9.77;;;5.20;;
10059;SDS011;5069;49.306;8.636;2022-11-15T13:47:59;10.43;;;4.23;;
10059;SDS011;5069;49.306;8.636;2022-11-15T13:51:06;7.87;;;4.80;;
10059;SDS011;5069;49.306;8.636;2022-11-15T13:54:37;6.03;;;4.10;;
10059;SDS011;5069;49.306;8.636;2022-11-15T13:57:56;8.93;;;4.40;;
10059;SDS011;5069;49.306;8.636;2022-11-15T14:01:03;8.10;;;4.43;;
10059;SDS011;5069;49.306;8.636;2022-11-15T14:04:06;6.50;;;4.40;;
10059;SDS011;5069;49.306;8.636;2022-11-15T14:07:14;11.60;;;4.30;;
10059;SDS011;5069;49.306;8.636;2022-11-15T14:10:33;7.53;;;4.90;;
10059;SDS011;5069;49.306;8.636;2022-11-15T14:13:37;6.73;;;3.80;;
10059;SDS011;5069;49.306;8.636;2022-11-15T14:16:40;7.33;;;3.73;;
10059;SDS011;5069;49.306;8.636;2022-11-15T14:19:46;4.90;;;3.80;;
10059;SDS011;5069;49.306;8.636;2022-11-15T14:22:54;7.50;;;3.93;;
10059;SDS011;5069;49.306;8.636;2022-11-15T14:25:58;5.70;;;3.77;;
10059;SDS011;5069;49.306;8.636;2022-11-15T14:32:25;6.00;;;3.80;;
10059;SDS011;5069;49.306;8.636;2022-11-15T14:35:28;4.43;;;3.23;;
10059;SDS011;5069;49.306;8.636;2022-11-15T14:38:30;6.73;;;3.80;;
10059;SDS011;5069;49.306;8.636;2022-11-15T14:41:34;8.90;;;4.17;;
10059;SDS011;5069;49.306;8.636;2022-11-15T14:44:38;5.73;;;4.00;;
10059;SDS011;5069;49.306;8.636;2022-11-15T14:47:46;6.87;;;3.93;;
10059;SDS011;5069;49.306;8.636;2022-11-15T14:50:48;7.30;;;4.37;;
10059;SDS011;5069;49.306;8.636;2022-11-15T14:53:50;6.10;;;3.70;;
10059;SDS011;5069;49.306;8.636;2022-11-15T14:56:52;4.07;;;3.37;;
10059;SDS011;5069;49.306;8.636;2022-11-15T14:59:53;6.27;;;3.47;;
10059;SDS011;5069;49.306;8.636;2022-11-15T15:02:55;5.13;;;3.90;;
10059;SDS011;5069;49.306;8.636;2022-11-15T15:05:57;6.40;;;3.80;;
10059;SDS011;5069;49.306;8.636;2022-11-15T15:08:58;5.87;;;3.93;;
10059;SDS011;5069;49.306;8.636;2022-11-15T15:12:00;6.93;;;4.07;;
10059;SDS011;5069;49.306;8.636;2022-11-15T15:15:11;7.60;;;3.50;;
10059;SDS011;5069;49.306;8.636;2022-11-15T15:18:15;6.07;;;3.27;;
10059;SDS011;5069;49.306;8.636;2022-11-15T15:21:19;5.13;;;3.50;;
10059;SDS011;5069;49.306;8.636;2022-11-15T15:24:22;7.90;;;4.40;;
10059;SDS011;5069;49.306;8.636;2022-11-15T15:27:24;6.63;;;3.97;;
10059;SDS011;5069;49.306;8.636;2022-11-15T15:30:26;10.47;;;5.43;;
10059;SDS011;5069;49.306;8.636;2022-11-15T15:33:29;13.30;;;6.37;;
10059;SDS011;5069;49.306;8.636;2022-11-15T15:36:30;14.10;;;7.27;;
10059;SDS011;5069;49.306;8.636;2022-11-15T15:39:32;10.20;;;5.67;;
10059;SDS011;5069;49.306;8.636;2022-11-15T15:42:33;8.90;;;5.47;;
10059;SDS011;5069;49.306;8.636;2022-11-15T15:45:38;9.17;;;4.80;;
10059;SDS011;5069;49.306;8.636;2022-11-15T15:48:42;7.10;;;4.20;;
10059;SDS011;5069;49.306;8.636;2022-11-15T15:51:44;10.10;;;3.87;;
10059;SDS011;5069;49.306;8.636;2022-11-15T15:54:45;6.73;;;4.00;;
10059;SDS011;5069;49.306;8.636;2022-11-15T15:57:47;6.97;;;4.00;;
10059;SDS011;5069;49.306;8.636;2022-11-15T16:00:49;7.43;;;4.00;;
10059;SDS011;5069;49.306;8.636;2022-11-15T16:03:50;6.13;;;4.53;;
10059;SDS011;5069;49.306;8.636;2022-11-15T16:06:51;7.57;;;4.30;;
10059;SDS011;5069;49.306;8.636;2022-11-15T16:09:56;6.17;;;4.10;;
10059;SDS011;5069;49.306;8.636;2022-11-15T16:13:04;4.90;;;3.53;;
10059;SDS011;5069;49.306;8.636;2022-11-15T16:16:07;5.10;;;4.13;;
10059;SDS011;5069;49.306;8.636;2022-11-15T16:19:13;7.23;;;3.83;;
10059;SDS011;5069;49.306;8.636;2022-11-15T16:22:15;4.37;;;3.50;;
10059;SDS011;5069;49.306;8.636;2022-11-15T16:25:16;8.80;;;5.43;;
10059;SDS011;5069;49.306;8.636;2022-11-15T16:28:19;9.10;;;5.70;;
10059;SDS011;5069;49.306;8.636;2022-11-15T16:31:23;7.73;;;5.40;;
10059;SDS011;5069;49.306;8.636;2022-11-15T16:34:24;6.97;;;5.10;;
10059;SDS011;5069;49.306;8.636;2022-11-15T16:37:32;7.07;;;4.47;;
10059;SDS011;5069;49.306;8.636;2022-11-15T16:40:33;6.47;;;4.13;;
10059;SDS011;5069;49.306;8.636;2022-11-15T16:43:36;6.87;;;5.00;;
10059;SDS011;5069;49.306;8.636;2022-11-15T16:46:37;5.47;;;4.00;;
10059;SDS011;5069;49.306;8.636;2022-11-15T16:49:42;5.30;;;4.10;;
10059;SDS011;5069;49.306;8.636;2022-11-15T16:52:45;8.73;;;4.70;;
10059;SDS011;5069;49.306;8.636;2022-11-15T16:55:47;8.70;;;4.23;;
10059;SDS011;5069;49.306;8.636;2022-11-15T16:58:49;8.87;;;4.43;;
10059;SDS011;5069;49.306;8.636;2022-11-15T17:01:50;7.27;;;4.40;;
10059;SDS011;5069;49.306;8.636;2022-11-15T17:04:52;7.10;;;4.00;;
10059;SDS011;5069;49.306;8.636;2022-11-15T17:07:53;8.60;;;4.17;;
10059;SDS011;5069;49.306;8.636;2022-11-15T17:10:56;9.27;;;4.90;;
10059;SDS011;5069;49.306;8.636;2022-11-15T17:13:57;8.17;;;4.67;;
10059;SDS011;5069;49.306;8.636;2022-11-15T17:16:59;9.40;;;5.37;;
10059;SDS011;5069;49.306;8.636;2022-11-15T17:20:01;10.03;;;5.47;;
10059;SDS011;5069;49.306;8.636;2022-11-15T17:23:05;6.00;;;4.60;;
10059;SDS011;5069;49.306;8.636;2022-11-15T17:26:12;8.27;;;5.20;;
10059;SDS011;5069;49.306;8.636;2022-11-15T17:29:30;9.70;;;5.43;;
10059;SDS011;5069;49.306;8.636;2022-11-15T17:32:34;8.93;;;5.80;;
10059;SDS011;5069;49.306;8.636;2022-11-15T17:35:36;8.90;;;5.40;;
10059;SDS011;5069;49.306;8.636;2022-11-15T17:38:40;6.87;;;5.03;;
10059;SDS011;5069;49.306;8.636;2022-11-15T17:41:42;8.27;;;4.80;;
10059;SDS011;5069;49.306;8.636;2022-11-15T17:44:44;8.70;;;4.80;;
10059;SDS011;5069;49.306;8.636;2022-11-15T17:47:45;6.83;;;4.23;;
10059;SDS011;5069;49.306;8.636;2022-11-15T17:50:56;6.07;;;4.50;;
10059;SDS011;5069;49.306;8.636;2022-11-15T17:54:02;6.97;;;4.80;;
10059;SDS011;5069;49.306;8.636;2022-11-15T17:57:03;7.20;;;4.63;;
10059;SDS011;5069;49.306;8.636;2022-11-15T18:00:05;8.97;;;4.90;;
10059;SDS011;5069;49.306;8.636;2022-11-15T18:03:07;8.77;;;5.07;;
10059;SDS011;5069;49.306;8.636;2022-11-15T18:06:09;6.10;;;4.50;;
10059;SDS011;5069;49.306;8.636;2022-11-15T18:09:11;6.93;;;5.03;;
10059;SDS011;5069;49.306;8.636;2022-11-15T18:12:13;7.30;;;5.23;;
10059;SDS011;5069;49.306;8.636;2022-11-15T18:15:14;7.53;;;4.90;;
10059;SDS011;5069;49.306;8.636;2022-11-15T18:18:16;7.20;;;5.57;;
10059;SDS011;5069;49.306;8.636;2022-11-15T18:21:18;6.87;;;4.57;;
10059;SDS011;5069;49.306;8.636;2022-11-15T18:24:28;6.23;;;4.10;;
10059;SDS011;5069;49.306;8.636;2022-11-15T18:27:34;7.90;;;4.40;;
10059;SDS011;5069;49.306;8.636;2022-11-15T18:30:37;10.03;;;4.57;;
10059;SDS011;5069;49.306;8.636;2022-11-15T18:33:38;8.10;;;5.17;;
10059;SDS011;5069;49.306;8.636;2022-11-15T18:36:40;8.30;;;4.60;;
10059;SDS011;5069;49.306;8.636;2022-11-15T18:39:42;5.87;;;4.37;;
10059;SDS011;5069;49.306;8.636;2022-11-15T18:42:54;6.30;;;5.37;;
10059;SDS011;5069;49.306;8.636;2022-11-15T18:46:03;6.63;;;5.30;;
10059;SDS011;5069;49.306;8.636;2022-11-15T18:49:09;5.73;;;4.50;;
10059;SDS011;5069;49.306;8.636;2022-11-15T18:52:12;7.17;;;4.80;;
10059;SDS011;5069;49.306;8.636;2022-11-15T18:55:14;6.10;;;4.57;;
10059;SDS011;5069;49.306;8.636;2022-11-15T18:58:15;6.63;;;4.37;;
10059;SDS011;5069;49.306;8.636;2022-11-15T19:01:18;4.83;;;4.30;;
10059;SDS011;5069;49.306;8.636;2022-11-15T19:04:21;8.23;;;4.83;;
10059;SDS011;5069;49.306;8.636;2022-11-15T19:07:22;9.57;;;5.83;;
10059;SDS011;5069;49.306;8.636;2022-11-15T19:10:24;8.00;;;5.23;;
10059;SDS011;5069;49.306;8.636;2022-11-15T19:13:25;5.57;;;4.97;;
10059;SDS011;5069;49.306;8.636;2022-11-15T19:16:27;7.57;;;5.43;;
10059;SDS011;5069;49.306;8.636;2022-11-15T19:19:30;15.13;;;7.43;;
10059;SDS011;5069;49.306;8.636;2022-11-15T19:22:34;12.77;;;8.27;;
10059;SDS011;5069;49.306;8.636;2022-11-15T19:25:35;11.60;;;7.23;;
10059;SDS011;5069;49.306;8.636;2022-11-15T19:28:37;12.90;;;7.43;;
10059;SDS011;5069;49.306;8.636;2022-11-15T19:31:39;8.77;;;5.37;;
10059;SDS011;5069;49.306;8.636;2022-11-15T19:34:41;6.23;;;5.00;;
10059;SDS011;5069;49.306;8.636;2022-11-15T19:37:42;6.40;;;5.00;;
10059;SDS011;5069;49.306;8.636;2022-11-15T19:40:44;6.47;;;4.90;;
10059;SDS011;5069;49.306;8.636;2022-11-15T19:43:45;7.13;;;4.93;;
10059;SDS011;5069;49.306;8.636;2022-11-15T19:46:53;11.30;;;6.03;;
10059;SDS011;5069;49.306;8.636;2022-11-15T19:49:55;8.97;;;6.10;;
10059;SDS011;5069;49.306;8.636;2022-11-15T19:52:57;8.23;;;5.30;;
10059;SDS011;5069;49.306;8.636;2022-11-15T19:55:59;7.20;;;5.20;;
10059;SDS011;5069;49.306;8.636;2022-11-15T19:59:02;10.53;;;6.20;;
10059;SDS011;5069;49.306;8.636;2022-11-15T20:02:05;6.53;;;5.00;;
10059;SDS011;5069;49.306;8.636;2022-11-15T20:05:07;8.57;;;5.90;;
10059;SDS011;5069;49.306;8.636;2022-11-15T20:08:08;6.93;;;5.50;;
10059;SDS011;5069;49.306;8.636;2022-11-15T20:11:10;8.33;;;6.13;;
10059;SDS011;5069;49.306;8.636;2022-11-15T20:14:13;8.50;;;5.93;;
10059;SDS011;5069;49.306;8.636;2022-11-15T20:17:14;6.97;;;6.17;;
10059;SDS011;5069;49.306;8.636;2022-11-15T20:20:15;9.20;;;6.37;;
10059;SDS011;5069;49.306;8.636;2022-11-15T20:23:17;8.07;;;6.10;;
10059;SDS011;5069;49.306;8.636;2022-11-15T20:26:19;8.87;;;7.20;;
10059;SDS011;5069;49.306;8.636;2022-11-15T20:29:20;10.93;;;6.60;;
10059;SDS011;5069;49.306;8.636;2022-11-15T20:32:22;7.27;;;5.27;;
10059;SDS011;5069;49.306;8.636;2022-11-15T20:35:23;6.17;;;4.93;;
10059;SDS011;5069;49.306;8.636;2022-11-15T20:38:25;9.23;;;5.53;;
10059;SDS011;5069;49.306;8.636;2022-11-15T20:41:26;7.50;;;5.90;;
10059;SDS011;5069;49.306;8.636;2022-11-15T20:44:28;9.53;;;6.37;;
10059;SDS011;5069;49.306;8.636;2022-11-15T20:47:30;8.00;;;6.10;;
10059;SDS011;5069;49.306;8.636;2022-11-15T20:50:31;9.13;;;6.40;;
10059;SDS011;5069;49.306;8.636;2022-11-15T20:53:43;9.23;;;5.77;;
10059;SDS011;5069;49.306;8.636;2022-11-15T20:56:50;7.23;;;5.50;;
10059;SDS011;5069;49.306;8.636;2022-11-15T20:59:51;11.40;;;5.43;;
10059;SDS011;5069;49.306;8.636;2022-11-15T21:02:53;6.53;;;5.80;;
10059;SDS011;5069;49.306;8.636;2022-11-15T21:05:54;9.07;;;5.20;;
10059;SDS011;5069;49.306;8.636;2022-11-15T21:08:55;9.27;;;5.40;;
10059;SDS011;5069;49.306;8.636;2022-11-15T21:12:16;7.77;;;4.80;;
10059;SDS011;5069;49.306;8.636;2022-11-15T21:15:19;5.90;;;4.90;;
10059;SDS011;5069;49.306;8.636;2022-11-15T21:18:21;6.13;;;4.90;;
10059;SDS011;5069;49.306;8.636;2022-11-15T21:21:22;6.83;;;5.90;;